sensor_id;sensor_type;location;lat;lon;timestamp;P1;durP1;ratioP1;P2;durP2;ratioP2
75847;SDS011;65750;47.540;19.090;2023-05-10T00:00:06;3.83;;;2.25;;
75847;SDS011;65750;47.540;19.090;2023-05-10T00:02:38;4.65;;;2.05;;
75847;SDS011;65750;47.540;19.090;2023-05-10T00:05:06;3.97;;;1.80;;
75847;SDS011;65750;47.540;19.090;2023-05-10T00:07:33;3.60;;;1.75;;
75847;SDS011;65750;47.540;19.090;2023-05-10T00:10:00;3.10;;;2.00;;
75847;SDS011;65750;47.540;19.090;2023-05-10T00:12:27;3.08;;;1.90;;
75847;SDS011;65750;47.540;19.090;2023-05-10T00:14:56;4.30;;;2.08;;
75847;SDS011;65750;47.540;19.090;2023-05-10T00:17:23;3.30;;;1.77;;
75847;SDS011;65750;47.540;19.090;2023-05-10T00:19:50;3.45;;;1.92;;
75847;SDS011;65750;47.540;19.090;2023-05-10T00:22:17;4.18;;;2.05;;
75847;SDS011;65750;47.540;19.090;2023-05-10T00:24:44;4.22;;;1.95;;
75847;SDS011;65750;47.540;19.090;2023-05-10T00:27:11;3.20;;;2.03;;
75847;SDS011;65750;47.540;19.090;2023-05-10T00:29:38;3.63;;;1.70;;
75847;SDS011;65750;47.540;19.090;2023-05-10T00:32:07;2.55;;;1.73;;
75847;SDS011;65750;47.540;19.090;2023-05-10T00:34:34;3.30;;;2.00;;
75847;SDS011;65750;47.540;19.090;2023-05-10T00:37:01;2.80;;;1.80;;
75847;SDS011;65750;47.540;19.090;2023-05-10T00:39:28;3.03;;;1.90;;
75847;SDS011;65750;47.540;19.090;2023-05-10T00:41:56;3.33;;;1.80;;
75847;SDS011;65750;47.540;19.090;2023-05-10T00:44:25;3.33;;;2.00;;
75847;SDS011;65750;47.540;19.090;2023-05-10T00:46:53;3.03;;;1.80;;
75847;SDS011;65750;47.540;19.090;2023-05-10T00:49:22;5.05;;;1.87;;
75847;SDS011;65750;47.540;19.090;2023-05-10T00:51:49;2.95;;;1.92;;
75847;SDS011;65750;47.540;19.090;2023-05-10T00:54:16;3.43;;;1.87;;
75847;SDS011;65750;47.540;19.090;2023-05-10T00:56:43;2.83;;;1.77;;
75847;SDS011;65750;47.540;19.090;2023-05-10T00:59:14;3.40;;;1.80;;
75847;SDS011;65750;47.540;19.090;2023-05-10T01:01:41;3.00;;;1.80;;
75847;SDS011;65750;47.540;19.090;2023-05-10T01:04:09;3.17;;;1.70;;
75847;SDS011;65750;47.540;19.090;2023-05-10T01:06:38;2.93;;;1.70;;
75847;SDS011;65750;47.540;19.090;2023-05-10T01:09:05;2.80;;;1.60;;
75847;SDS011;65750;47.540;19.090;2023-05-10T01:11:33;2.65;;;1.67;;
75847;SDS011;65750;47.540;19.090;2023-05-10T01:14:01;3.03;;;2.00;;
75847;SDS011;65750;47.540;19.090;2023-05-10T01:16:29;3.62;;;2.00;;
75847;SDS011;65750;47.540;19.090;2023-05-10T01:18:58;2.60;;;1.50;;
75847;SDS011;65750;47.540;19.090;2023-05-10T01:21:27;2.85;;;1.60;;
75847;SDS011;65750;47.540;19.090;2023-05-10T01:27:14;2.92;;;1.80;;
75847;SDS011;65750;47.540;19.090;2023-05-10T01:30:23;3.22;;;1.75;;
75847;SDS011;65750;47.540;19.090;2023-05-10T01:33:15;2.90;;;1.70;;
75847;SDS011;65750;47.540;19.090;2023-05-10T01:35:47;2.58;;;1.60;;
75847;SDS011;65750;47.540;19.090;2023-05-10T01:38:19;2.70;;;1.75;;
75847;SDS011;65750;47.540;19.090;2023-05-10T01:40:52;2.60;;;1.62;;
75847;SDS011;65750;47.540;19.090;2023-05-10T01:43:33;2.90;;;1.90;;
75847;SDS011;65750;47.540;19.090;2023-05-10T01:46:05;2.60;;;1.70;;
75847;SDS011;65750;47.540;19.090;2023-05-10T01:48:38;2.75;;;1.48;;
75847;SDS011;65750;47.540;19.090;2023-05-10T01:51:09;3.00;;;1.77;;
75847;SDS011;65750;47.540;19.090;2023-05-10T01:53:36;3.00;;;1.55;;
75847;SDS011;65750;47.540;19.090;2023-05-10T01:56:04;3.83;;;1.70;;
75847;SDS011;65750;47.540;19.090;2023-05-10T01:58:32;2.70;;;1.70;;
75847;SDS011;65750;47.540;19.090;2023-05-10T02:01:01;2.55;;;1.60;;
75847;SDS011;65750;47.540;19.090;2023-05-10T02:03:30;2.67;;;1.80;;
75847;SDS011;65750;47.540;19.090;2023-05-10T02:05:59;2.75;;;1.85;;
75847;SDS011;65750;47.540;19.090;2023-05-10T02:08:26;3.20;;;1.90;;
75847;SDS011;65750;47.540;19.090;2023-05-10T02:10:54;2.73;;;1.67;;
75847;SDS011;65750;47.540;19.090;2023-05-10T02:13:22;3.17;;;1.70;;
75847;SDS011;65750;47.540;19.090;2023-05-10T02:15:49;2.50;;;1.62;;
75847;SDS011;65750;47.540;19.090;2023-05-10T02:18:18;2.85;;;1.85;;
75847;SDS011;65750;47.540;19.090;2023-05-10T02:20:45;3.30;;;1.98;;
75847;SDS011;65750;47.540;19.090;2023-05-10T02:23:16;2.53;;;1.60;;
75847;SDS011;65750;47.540;19.090;2023-05-10T02:25:44;2.80;;;1.58;;
75847;SDS011;65750;47.540;19.090;2023-05-10T02:28:12;2.62;;;1.70;;
75847;SDS011;65750;47.540;19.090;2023-05-10T02:30:40;3.15;;;1.73;;
75847;SDS011;65750;47.540;19.090;2023-05-10T02:33:08;2.65;;;1.70;;
75847;SDS011;65750;47.540;19.090;2023-05-10T02:35:36;3.30;;;1.50;;
75847;SDS011;65750;47.540;19.090;2023-05-10T02:38:04;2.92;;;1.60;;
75847;SDS011;65750;47.540;19.090;2023-05-10T02:40:33;2.87;;;1.87;;
75847;SDS011;65750;47.540;19.090;2023-05-10T02:43:02;2.62;;;1.55;;
75847;SDS011;65750;47.540;19.090;2023-05-10T02:45:30;2.70;;;1.65;;
75847;SDS011;65750;47.540;19.090;2023-05-10T02:47:58;3.03;;;1.70;;
75847;SDS011;65750;47.540;19.090;2023-05-10T02:50:25;2.97;;;1.60;;
75847;SDS011;65750;47.540;19.090;2023-05-10T02:52:54;2.70;;;1.80;;
75847;SDS011;65750;47.540;19.090;2023-05-10T02:55:25;2.67;;;1.65;;
75847;SDS011;65750;47.540;19.090;2023-05-10T02:57:56;2.78;;;1.50;;
75847;SDS011;65750;47.540;19.090;2023-05-10T03:00:25;2.73;;;1.60;;
75847;SDS011;65750;47.540;19.090;2023-05-10T03:02:52;2.40;;;1.50;;
75847;SDS011;65750;47.540;19.090;2023-05-10T03:05:20;2.80;;;1.85;;
75847;SDS011;65750;47.540;19.090;2023-05-10T03:07:48;2.47;;;1.58;;
75847;SDS011;65750;47.540;19.090;2023-05-10T03:10:15;2.70;;;1.80;;
75847;SDS011;65750;47.540;19.090;2023-05-10T03:12:46;3.27;;;1.57;;
75847;SDS011;65750;47.540;19.090;2023-05-10T03:15:22;3.37;;;1.55;;
75847;SDS011;65750;47.540;19.090;2023-05-10T03:17:55;2.40;;;1.65;;
75847;SDS011;65750;47.540;19.090;2023-05-10T03:20:24;3.00;;;1.65;;
75847;SDS011;65750;47.540;19.090;2023-05-10T03:22:55;2.90;;;1.70;;
75847;SDS011;65750;47.540;19.090;2023-05-10T03:25:26;2.27;;;1.37;;
75847;SDS011;65750;47.540;19.090;2023-05-10T03:27:53;2.17;;;1.50;;
75847;SDS011;65750;47.540;19.090;2023-05-10T03:30:23;3.08;;;1.70;;
75847;SDS011;65750;47.540;19.090;2023-05-10T03:32:51;2.65;;;1.65;;
75847;SDS011;65750;47.540;19.090;2023-05-10T03:35:18;2.90;;;1.80;;
75847;SDS011;65750;47.540;19.090;2023-05-10T03:37:45;2.67;;;1.60;;
75847;SDS011;65750;47.540;19.090;2023-05-10T03:40:13;2.97;;;1.73;;
75847;SDS011;65750;47.540;19.090;2023-05-10T03:42:41;3.05;;;1.80;;
75847;SDS011;65750;47.540;19.090;2023-05-10T03:45:08;2.80;;;1.73;;
75847;SDS011;65750;47.540;19.090;2023-05-10T03:47:37;2.65;;;1.70;;
75847;SDS011;65750;47.540;19.090;2023-05-10T03:50:05;2.40;;;1.40;;
75847;SDS011;65750;47.540;19.090;2023-05-10T03:52:33;2.75;;;1.62;;
75847;SDS011;65750;47.540;19.090;2023-05-10T03:55:00;2.70;;;1.70;;
75847;SDS011;65750;47.540;19.090;2023-05-10T03:57:29;2.60;;;1.80;;
75847;SDS011;65750;47.540;19.090;2023-05-10T03:59:56;3.25;;;1.67;;
75847;SDS011;65750;47.540;19.090;2023-05-10T04:02:23;2.57;;;1.67;;
75847;SDS011;65750;47.540;19.090;2023-05-10T04:04:52;2.37;;;1.40;;
75847;SDS011;65750;47.540;19.090;2023-05-10T04:07:20;2.53;;;1.70;;
75847;SDS011;65750;47.540;19.090;2023-05-10T04:09:47;2.10;;;1.50;;
75847;SDS011;65750;47.540;19.090;2023-05-10T04:12:14;3.00;;;1.70;;
75847;SDS011;65750;47.540;19.090;2023-05-10T04:14:41;2.30;;;1.50;;
75847;SDS011;65750;47.540;19.090;2023-05-10T04:17:08;2.90;;;1.80;;
75847;SDS011;65750;47.540;19.090;2023-05-10T04:19:36;2.47;;;1.70;;
75847;SDS011;65750;47.540;19.090;2023-05-10T04:22:04;2.58;;;1.67;;
75847;SDS011;65750;47.540;19.090;2023-05-10T04:24:31;2.30;;;1.65;;
75847;SDS011;65750;47.540;19.090;2023-05-10T04:26:58;2.97;;;1.70;;
75847;SDS011;65750;47.540;19.090;2023-05-10T04:29:25;2.62;;;1.58;;
75847;SDS011;65750;47.540;19.090;2023-05-10T04:31:53;2.70;;;1.70;;
75847;SDS011;65750;47.540;19.090;2023-05-10T04:34:20;2.65;;;1.70;;
75847;SDS011;65750;47.540;19.090;2023-05-10T04:36:47;2.50;;;1.73;;
75847;SDS011;65750;47.540;19.090;2023-05-10T04:39:16;2.73;;;1.70;;
75847;SDS011;65750;47.540;19.090;2023-05-10T04:41:43;3.15;;;1.70;;
75847;SDS011;65750;47.540;19.090;2023-05-10T04:44:10;2.30;;;1.70;;
75847;SDS011;65750;47.540;19.090;2023-05-10T04:46:38;3.00;;;1.80;;
75847;SDS011;65750;47.540;19.090;2023-05-10T04:49:05;2.30;;;1.55;;
75847;SDS011;65750;47.540;19.090;2023-05-10T04:51:32;2.47;;;1.73;;
75847;SDS011;65750;47.540;19.090;2023-05-10T04:53:59;2.72;;;1.80;;
75847;SDS011;65750;47.540;19.090;2023-05-10T04:56:28;2.62;;;1.77;;
75847;SDS011;65750;47.540;19.090;2023-05-10T04:58:55;2.53;;;1.80;;
75847;SDS011;65750;47.540;19.090;2023-05-10T05:01:22;3.05;;;1.77;;
75847;SDS011;65750;47.540;19.090;2023-05-10T05:03:50;2.77;;;1.60;;
75847;SDS011;65750;47.540;19.090;2023-05-10T05:06:18;2.95;;;1.60;;
75847;SDS011;65750;47.540;19.090;2023-05-10T05:08:46;2.30;;;1.52;;
75847;SDS011;65750;47.540;19.090;2023-05-10T05:11:14;2.55;;;1.60;;
75847;SDS011;65750;47.540;19.090;2023-05-10T05:13:43;2.75;;;1.87;;
75847;SDS011;65750;47.540;19.090;2023-05-10T05:16:11;3.60;;;1.60;;
75847;SDS011;65750;47.540;19.090;2023-05-10T05:18:38;2.60;;;1.52;;
75847;SDS011;65750;47.540;19.090;2023-05-10T05:21:13;2.62;;;2.00;;
75847;SDS011;65750;47.540;19.090;2023-05-10T05:23:40;3.08;;;1.52;;
75847;SDS011;65750;47.540;19.090;2023-05-10T05:26:07;2.90;;;2.00;;
75847;SDS011;65750;47.540;19.090;2023-05-10T05:28:35;3.60;;;2.17;;
75847;SDS011;65750;47.540;19.090;2023-05-10T05:31:04;5.07;;;3.20;;
75847;SDS011;65750;47.540;19.090;2023-05-10T05:33:31;4.50;;;3.22;;
75847;SDS011;65750;47.540;19.090;2023-05-10T05:35:59;5.20;;;3.47;;
75847;SDS011;65750;47.540;19.090;2023-05-10T05:38:27;6.45;;;3.45;;
75847;SDS011;65750;47.540;19.090;2023-05-10T05:40:54;6.27;;;3.70;;
75847;SDS011;65750;47.540;19.090;2023-05-10T05:43:22;5.43;;;3.65;;
75847;SDS011;65750;47.540;19.090;2023-05-10T05:45:49;7.82;;;3.70;;
75847;SDS011;65750;47.540;19.090;2023-05-10T05:48:20;5.47;;;3.78;;
75847;SDS011;65750;47.540;19.090;2023-05-10T05:50:47;6.35;;;3.92;;
75847;SDS011;65750;47.540;19.090;2023-05-10T05:53:15;4.93;;;3.00;;
75847;SDS011;65750;47.540;19.090;2023-05-10T05:55:50;5.87;;;3.10;;
75847;SDS011;65750;47.540;19.090;2023-05-10T05:58:18;6.78;;;2.70;;
75847;SDS011;65750;47.540;19.090;2023-05-10T06:00:46;7.95;;;2.78;;
75847;SDS011;65750;47.540;19.090;2023-05-10T06:03:13;8.18;;;2.62;;
75847;SDS011;65750;47.540;19.090;2023-05-10T06:05:42;4.90;;;2.30;;
75847;SDS011;65750;47.540;19.090;2023-05-10T06:08:09;5.35;;;2.55;;
75847;SDS011;65750;47.540;19.090;2023-05-10T06:10:36;3.90;;;2.33;;
75847;SDS011;65750;47.540;19.090;2023-05-10T06:13:03;5.00;;;2.33;;
75847;SDS011;65750;47.540;19.090;2023-05-10T06:15:30;6.03;;;2.53;;
75847;SDS011;65750;47.540;19.090;2023-05-10T06:17:58;6.23;;;2.60;;
75847;SDS011;65750;47.540;19.090;2023-05-10T06:20:25;4.45;;;2.20;;
75847;SDS011;65750;47.540;19.090;2023-05-10T06:22:54;6.40;;;2.55;;
75847;SDS011;65750;47.540;19.090;2023-05-10T06:25:22;4.35;;;2.22;;
75847;SDS011;65750;47.540;19.090;2023-05-10T06:27:49;8.05;;;2.62;;
75847;SDS011;65750;47.540;19.090;2023-05-10T06:30:20;7.83;;;2.53;;
75847;SDS011;65750;47.540;19.090;2023-05-10T06:32:52;8.57;;;2.70;;
75847;SDS011;65750;47.540;19.090;2023-05-10T06:35:20;7.78;;;2.90;;
75847;SDS011;65750;47.540;19.090;2023-05-10T06:37:47;10.13;;;2.58;;
75847;SDS011;65750;47.540;19.090;2023-05-10T06:40:17;7.37;;;2.50;;
75847;SDS011;65750;47.540;19.090;2023-05-10T06:42:44;7.83;;;2.60;;
75847;SDS011;65750;47.540;19.090;2023-05-10T06:45:12;25.58;;;8.20;;
75847;SDS011;65750;47.540;19.090;2023-05-10T06:47:40;33.85;;;10.32;;
75847;SDS011;65750;47.540;19.090;2023-05-10T06:50:07;38.50;;;10.18;;
75847;SDS011;65750;47.540;19.090;2023-05-10T06:52:34;37.83;;;8.85;;
75847;SDS011;65750;47.540;19.090;2023-05-10T06:55:02;25.67;;;8.53;;
75847;SDS011;65750;47.540;19.090;2023-05-10T06:57:31;32.10;;;8.45;;
75847;SDS011;65750;47.540;19.090;2023-05-10T06:59:58;27.65;;;8.70;;
75847;SDS011;65750;47.540;19.090;2023-05-10T07:02:26;28.02;;;9.60;;
75847;SDS011;65750;47.540;19.090;2023-05-10T07:04:53;25.58;;;8.63;;
75847;SDS011;65750;47.540;19.090;2023-05-10T07:07:20;26.80;;;8.27;;
75847;SDS011;65750;47.540;19.090;2023-05-10T07:09:48;24.27;;;8.30;;
75847;SDS011;65750;47.540;19.090;2023-05-10T07:12:15;24.65;;;7.93;;
75847;SDS011;65750;47.540;19.090;2023-05-10T07:14:43;23.05;;;8.10;;
75847;SDS011;65750;47.540;19.090;2023-05-10T07:17:10;70.70;;;19.00;;
75847;SDS011;65750;47.540;19.090;2023-05-10T07:19:38;128.57;;;45.27;;
75847;SDS011;65750;47.540;19.090;2023-05-10T07:22:05;84.25;;;31.70;;
75847;SDS011;65750;47.540;19.090;2023-05-10T07:24:33;72.65;;;24.48;;
75847;SDS011;65750;47.540;19.090;2023-05-10T07:27:00;55.78;;;20.85;;
75847;SDS011;65750;47.540;19.090;2023-05-10T07:29:28;48.25;;;17.02;;
75847;SDS011;65750;47.540;19.090;2023-05-10T07:31:57;16.57;;;6.97;;
75847;SDS011;65750;47.540;19.090;2023-05-10T07:34:24;15.50;;;6.18;;
75847;SDS011;65750;47.540;19.090;2023-05-10T07:36:51;9.70;;;4.93;;
75847;SDS011;65750;47.540;19.090;2023-05-10T07:39:18;8.63;;;4.62;;
75847;SDS011;65750;47.540;19.090;2023-05-10T07:41:46;7.93;;;4.25;;
75847;SDS011;65750;47.540;19.090;2023-05-10T07:44:13;7.70;;;3.73;;
75847;SDS011;65750;47.540;19.090;2023-05-10T07:46:44;7.62;;;3.87;;
75847;SDS011;65750;47.540;19.090;2023-05-10T07:49:12;7.55;;;4.03;;
75847;SDS011;65750;47.540;19.090;2023-05-10T07:51:39;5.28;;;4.00;;
75847;SDS011;65750;47.540;19.090;2023-05-10T07:54:08;8.88;;;6.00;;
75847;SDS011;65750;47.540;19.090;2023-05-10T07:56:35;8.83;;;5.80;;
75847;SDS011;65750;47.540;19.090;2023-05-10T07:59:02;9.07;;;4.95;;
75847;SDS011;65750;47.540;19.090;2023-05-10T08:01:31;9.95;;;5.45;;
75847;SDS011;65750;47.540;19.090;2023-05-10T08:03:59;13.82;;;8.30;;
75847;SDS011;65750;47.540;19.090;2023-05-10T08:06:28;15.95;;;10.35;;
75847;SDS011;65750;47.540;19.090;2023-05-10T08:08:55;16.33;;;10.63;;
75847;SDS011;65750;47.540;19.090;2023-05-10T08:11:22;16.75;;;11.80;;
75847;SDS011;65750;47.540;19.090;2023-05-10T08:13:50;17.98;;;11.07;;
75847;SDS011;65750;47.540;19.090;2023-05-10T08:16:17;17.98;;;10.27;;
75847;SDS011;65750;47.540;19.090;2023-05-10T08:18:45;18.08;;;10.60;;
75847;SDS011;65750;47.540;19.090;2023-05-10T08:21:13;15.47;;;10.10;;
75847;SDS011;65750;47.540;19.090;2023-05-10T08:23:41;15.60;;;9.60;;
75847;SDS011;65750;47.540;19.090;2023-05-10T08:26:09;14.73;;;9.60;;
75847;SDS011;65750;47.540;19.090;2023-05-10T08:28:36;16.30;;;10.02;;
75847;SDS011;65750;47.540;19.090;2023-05-10T08:31:04;15.98;;;9.45;;
75847;SDS011;65750;47.540;19.090;2023-05-10T08:33:31;14.10;;;8.83;;
75847;SDS011;65750;47.540;19.090;2023-05-10T08:35:58;13.70;;;9.02;;
75847;SDS011;65750;47.540;19.090;2023-05-10T08:38:25;17.30;;;9.30;;
75847;SDS011;65750;47.540;19.090;2023-05-10T08:40:54;14.77;;;8.75;;
75847;SDS011;65750;47.540;19.090;2023-05-10T08:43:25;13.10;;;8.38;;
75847;SDS011;65750;47.540;19.090;2023-05-10T08:45:53;11.67;;;7.07;;
75847;SDS011;65750;47.540;19.090;2023-05-10T08:48:21;12.55;;;8.57;;
75847;SDS011;65750;47.540;19.090;2023-05-10T08:50:50;12.35;;;8.57;;
75847;SDS011;65750;47.540;19.090;2023-05-10T08:53:20;11.75;;;7.57;;
75847;SDS011;65750;47.540;19.090;2023-05-10T08:55:47;13.55;;;8.10;;
75847;SDS011;65750;47.540;19.090;2023-05-10T08:58:16;17.73;;;8.63;;
75847;SDS011;65750;47.540;19.090;2023-05-10T09:00:45;29.37;;;5.43;;
75847;SDS011;65750;47.540;19.090;2023-05-10T09:03:12;11.57;;;3.50;;
75847;SDS011;65750;47.540;19.090;2023-05-10T09:05:39;11.23;;;3.20;;
75847;SDS011;65750;47.540;19.090;2023-05-10T09:08:07;19.42;;;4.07;;
75847;SDS011;65750;47.540;19.090;2023-05-10T09:10:36;13.20;;;4.00;;
75847;SDS011;65750;47.540;19.090;2023-05-10T09:13:03;11.30;;;3.95;;
75847;SDS011;65750;47.540;19.090;2023-05-10T09:15:32;16.02;;;4.30;;
75847;SDS011;65750;47.540;19.090;2023-05-10T09:18:00;11.60;;;4.60;;
75847;SDS011;65750;47.540;19.090;2023-05-10T09:20:27;8.70;;;4.12;;
75847;SDS011;65750;47.540;19.090;2023-05-10T09:22:55;11.27;;;4.00;;
75847;SDS011;65750;47.540;19.090;2023-05-10T09:25:22;8.93;;;4.45;;
75847;SDS011;65750;47.540;19.090;2023-05-10T09:27:49;11.55;;;4.30;;
75847;SDS011;65750;47.540;19.090;2023-05-10T09:30:17;13.05;;;4.20;;
75847;SDS011;65750;47.540;19.090;2023-05-10T09:32:51;9.73;;;4.07;;
75847;SDS011;65750;47.540;19.090;2023-05-10T09:35:19;12.37;;;4.37;;
75847;SDS011;65750;47.540;19.090;2023-05-10T09:37:48;8.68;;;3.90;;
75847;SDS011;65750;47.540;19.090;2023-05-10T09:40:17;8.65;;;3.83;;
75847;SDS011;65750;47.540;19.090;2023-05-10T09:42:50;7.25;;;3.35;;
75847;SDS011;65750;47.540;19.090;2023-05-10T09:45:19;7.75;;;4.15;;
75847;SDS011;65750;47.540;19.090;2023-05-10T09:47:46;7.70;;;4.00;;
75847;SDS011;65750;47.540;19.090;2023-05-10T09:50:15;9.25;;;3.90;;
75847;SDS011;65750;47.540;19.090;2023-05-10T09:52:46;5.85;;;3.45;;
75847;SDS011;65750;47.540;19.090;2023-05-10T09:55:14;9.02;;;4.45;;
75847;SDS011;65750;47.540;19.090;2023-05-10T09:57:42;6.87;;;3.28;;
75847;SDS011;65750;47.540;19.090;2023-05-10T10:00:09;6.77;;;3.40;;
75847;SDS011;65750;47.540;19.090;2023-05-10T10:02:39;7.97;;;3.62;;
75847;SDS011;65750;47.540;19.090;2023-05-10T10:05:06;7.82;;;3.87;;
75847;SDS011;65750;47.540;19.090;2023-05-10T10:07:35;5.50;;;3.28;;
75847;SDS011;65750;47.540;19.090;2023-05-10T10:10:03;6.87;;;3.28;;
75847;SDS011;65750;47.540;19.090;2023-05-10T10:12:31;4.63;;;3.10;;
75847;SDS011;65750;47.540;19.090;2023-05-10T10:14:58;6.55;;;3.47;;
75847;SDS011;65750;47.540;19.090;2023-05-10T10:17:26;6.05;;;3.28;;
75847;SDS011;65750;47.540;19.090;2023-05-10T10:19:55;5.00;;;3.30;;
75847;SDS011;65750;47.540;19.090;2023-05-10T10:22:23;4.85;;;3.10;;
75847;SDS011;65750;47.540;19.090;2023-05-10T10:24:52;6.17;;;3.20;;
75847;SDS011;65750;47.540;19.090;2023-05-10T10:27:23;5.40;;;3.30;;
75847;SDS011;65750;47.540;19.090;2023-05-10T10:29:57;8.30;;;3.17;;
75847;SDS011;65750;47.540;19.090;2023-05-10T10:32:30;4.18;;;3.03;;
75847;SDS011;65750;47.540;19.090;2023-05-10T10:35:03;6.43;;;2.90;;
75847;SDS011;65750;47.540;19.090;2023-05-10T10:37:43;5.70;;;3.00;;
75847;SDS011;65750;47.540;19.090;2023-05-10T10:40:26;4.95;;;2.87;;
75847;SDS011;65750;47.540;19.090;2023-05-10T10:42:54;4.20;;;2.75;;
75847;SDS011;65750;47.540;19.090;2023-05-10T10:45:22;5.18;;;2.95;;
75847;SDS011;65750;47.540;19.090;2023-05-10T10:47:53;4.57;;;2.95;;
75847;SDS011;65750;47.540;19.090;2023-05-10T10:50:43;4.77;;;2.80;;
75847;SDS011;65750;47.540;19.090;2023-05-10T10:53:10;4.68;;;2.90;;
75847;SDS011;65750;47.540;19.090;2023-05-10T10:55:45;14.80;;;4.47;;
75847;SDS011;65750;47.540;19.090;2023-05-10T10:58:28;4.40;;;2.80;;
75847;SDS011;65750;47.540;19.090;2023-05-10T11:01:08;6.35;;;3.17;;
75847;SDS011;65750;47.540;19.090;2023-05-10T11:03:39;4.43;;;2.60;;
75847;SDS011;65750;47.540;19.090;2023-05-10T11:06:07;4.15;;;2.70;;
75847;SDS011;65750;47.540;19.090;2023-05-10T11:08:39;4.80;;;3.15;;
75847;SDS011;65750;47.540;19.090;2023-05-10T11:11:12;4.95;;;3.05;;
75847;SDS011;65750;47.540;19.090;2023-05-10T11:13:41;4.85;;;2.70;;
75847;SDS011;65750;47.540;19.090;2023-05-10T11:16:10;5.33;;;2.97;;
75847;SDS011;65750;47.540;19.090;2023-05-10T11:18:51;3.85;;;2.55;;
75847;SDS011;65750;47.540;19.090;2023-05-10T11:21:28;4.25;;;2.80;;
75847;SDS011;65750;47.540;19.090;2023-05-10T11:23:57;4.62;;;2.90;;
75847;SDS011;65750;47.540;19.090;2023-05-10T11:26:34;4.50;;;2.65;;
75847;SDS011;65750;47.540;19.090;2023-05-10T11:29:02;4.70;;;2.80;;
75847;SDS011;65750;47.540;19.090;2023-05-10T11:31:30;4.15;;;2.40;;
75847;SDS011;65750;47.540;19.090;2023-05-10T11:33:59;3.85;;;2.83;;
75847;SDS011;65750;47.540;19.090;2023-05-10T11:36:28;4.78;;;2.53;;
75847;SDS011;65750;47.540;19.090;2023-05-10T11:38:56;3.87;;;2.70;;
75847;SDS011;65750;47.540;19.090;2023-05-10T11:41:24;4.33;;;2.60;;
75847;SDS011;65750;47.540;19.090;2023-05-10T11:43:54;3.78;;;2.60;;
75847;SDS011;65750;47.540;19.090;2023-05-10T11:46:22;3.78;;;2.53;;
75847;SDS011;65750;47.540;19.090;2023-05-10T11:48:52;3.53;;;2.60;;
75847;SDS011;65750;47.540;19.090;2023-05-10T11:51:26;3.80;;;2.67;;
75847;SDS011;65750;47.540;19.090;2023-05-10T11:53:53;4.40;;;2.37;;
75847;SDS011;65750;47.540;19.090;2023-05-10T11:56:21;4.00;;;2.60;;
75847;SDS011;65750;47.540;19.090;2023-05-10T11:58:53;3.37;;;2.47;;
75847;SDS011;65750;47.540;19.090;2023-05-10T12:01:20;3.85;;;2.62;;
75847;SDS011;65750;47.540;19.090;2023-05-10T12:03:48;4.55;;;2.62;;
75847;SDS011;65750;47.540;19.090;2023-05-10T12:06:15;3.97;;;2.70;;
75847;SDS011;65750;47.540;19.090;2023-05-10T12:08:44;3.83;;;2.67;;
75847;SDS011;65750;47.540;19.090;2023-05-10T12:11:12;4.25;;;2.20;;
75847;SDS011;65750;47.540;19.090;2023-05-10T12:13:41;3.85;;;2.42;;
75847;SDS011;65750;47.540;19.090;2023-05-10T12:16:14;3.65;;;2.30;;
75847;SDS011;65750;47.540;19.090;2023-05-10T12:18:42;3.17;;;2.40;;
75847;SDS011;65750;47.540;19.090;2023-05-10T12:21:09;3.95;;;2.47;;
75847;SDS011;65750;47.540;19.090;2023-05-10T12:23:38;3.72;;;2.53;;
75847;SDS011;65750;47.540;19.090;2023-05-10T12:26:05;3.28;;;2.33;;
75847;SDS011;65750;47.540;19.090;2023-05-10T12:28:33;4.03;;;2.53;;
75847;SDS011;65750;47.540;19.090;2023-05-10T12:31:01;2.90;;;2.23;;
75847;SDS011;65750;47.540;19.090;2023-05-10T12:33:36;3.28;;;2.15;;
75847;SDS011;65750;47.540;19.090;2023-05-10T12:36:05;3.50;;;2.47;;
75847;SDS011;65750;47.540;19.090;2023-05-10T12:38:33;2.75;;;1.95;;
75847;SDS011;65750;47.540;19.090;2023-05-10T12:41:03;3.72;;;2.85;;
75847;SDS011;65750;47.540;19.090;2023-05-10T12:43:32;3.17;;;2.20;;
75847;SDS011;65750;47.540;19.090;2023-05-10T12:46:03;5.43;;;2.28;;
75847;SDS011;65750;47.540;19.090;2023-05-10T12:48:31;4.18;;;2.37;;
75847;SDS011;65750;47.540;19.090;2023-05-10T12:51:00;2.75;;;1.98;;
75847;SDS011;65750;47.540;19.090;2023-05-10T12:53:28;3.72;;;2.20;;
75847;SDS011;65750;47.540;19.090;2023-05-10T12:55:55;3.40;;;2.40;;
75847;SDS011;65750;47.540;19.090;2023-05-10T12:58:22;3.78;;;1.92;;
75847;SDS011;65750;47.540;19.090;2023-05-10T13:00:49;3.17;;;2.47;;
75847;SDS011;65750;47.540;19.090;2023-05-10T13:03:17;3.25;;;2.10;;
75847;SDS011;65750;47.540;19.090;2023-05-10T13:05:44;3.22;;;2.17;;
75847;SDS011;65750;47.540;19.090;2023-05-10T13:08:13;3.40;;;2.67;;
75847;SDS011;65750;47.540;19.090;2023-05-10T13:10:40;3.55;;;2.33;;
75847;SDS011;65750;47.540;19.090;2023-05-10T13:13:08;4.12;;;2.30;;
75847;SDS011;65750;47.540;19.090;2023-05-10T13:15:35;3.00;;;2.08;;
75847;SDS011;65750;47.540;19.090;2023-05-10T13:18:02;3.65;;;2.20;;
75847;SDS011;65750;47.540;19.090;2023-05-10T13:20:30;2.90;;;1.97;;
75847;SDS011;65750;47.540;19.090;2023-05-10T13:22:57;2.53;;;1.98;;
75847;SDS011;65750;47.540;19.090;2023-05-10T13:25:26;2.95;;;2.25;;
75847;SDS011;65750;47.540;19.090;2023-05-10T13:27:53;3.42;;;2.28;;
75847;SDS011;65750;47.540;19.090;2023-05-10T13:30:20;3.62;;;2.10;;
75847;SDS011;65750;47.540;19.090;2023-05-10T13:32:49;3.20;;;2.10;;
75847;SDS011;65750;47.540;19.090;2023-05-10T13:35:16;3.50;;;1.90;;
75847;SDS011;65750;47.540;19.090;2023-05-10T13:37:44;3.70;;;2.03;;
75847;SDS011;65750;47.540;19.090;2023-05-10T13:40:11;3.10;;;2.00;;
75847;SDS011;65750;47.540;19.090;2023-05-10T13:42:40;3.55;;;2.17;;
75847;SDS011;65750;47.540;19.090;2023-05-10T13:45:07;3.03;;;2.17;;
75847;SDS011;65750;47.540;19.090;2023-05-10T13:47:35;3.05;;;2.00;;
75847;SDS011;65750;47.540;19.090;2023-05-10T13:50:02;2.87;;;2.05;;
75847;SDS011;65750;47.540;19.090;2023-05-10T13:52:30;3.40;;;2.15;;
75847;SDS011;65750;47.540;19.090;2023-05-10T13:54:57;2.85;;;1.90;;
75847;SDS011;65750;47.540;19.090;2023-05-10T13:57:24;3.07;;;2.03;;
75847;SDS011;65750;47.540;19.090;2023-05-10T13:59:53;2.50;;;1.90;;
75847;SDS011;65750;47.540;19.090;2023-05-10T14:02:21;3.33;;;2.17;;
75847;SDS011;65750;47.540;19.090;2023-05-10T14:04:48;3.65;;;1.67;;
75847;SDS011;65750;47.540;19.090;2023-05-10T14:07:15;2.97;;;1.95;;
75847;SDS011;65750;47.540;19.090;2023-05-10T14:09:43;2.40;;;1.70;;
75847;SDS011;65750;47.540;19.090;2023-05-10T14:12:10;2.60;;;1.80;;
75847;SDS011;65750;47.540;19.090;2023-05-10T14:14:37;3.25;;;1.90;;
75847;SDS011;65750;47.540;19.090;2023-05-10T14:17:06;2.55;;;1.75;;
75847;SDS011;65750;47.540;19.090;2023-05-10T14:19:33;2.83;;;1.98;;
75847;SDS011;65750;47.540;19.090;2023-05-10T14:22:01;4.30;;;1.70;;
75847;SDS011;65750;47.540;19.090;2023-05-10T14:24:28;3.45;;;1.90;;
75847;SDS011;65750;47.540;19.090;2023-05-10T14:26:55;2.90;;;1.73;;
75847;SDS011;65750;47.540;19.090;2023-05-10T14:29:22;3.72;;;2.10;;
75847;SDS011;65750;47.540;19.090;2023-05-10T14:31:49;3.15;;;2.00;;
75847;SDS011;65750;47.540;19.090;2023-05-10T14:34:18;3.83;;;2.20;;
75847;SDS011;65750;47.540;19.090;2023-05-10T14:36:45;2.40;;;1.77;;
75847;SDS011;65750;47.540;19.090;2023-05-10T14:39:12;2.85;;;1.77;;
75847;SDS011;65750;47.540;19.090;2023-05-10T14:41:40;3.10;;;1.95;;